createdAt,value
2018-11-22T00:00:20.316Z,1012.80
2018-11-22T00:01:20.122Z,1012.79
2018-11-22T00:02:06.162Z,1012.79
2018-11-22T00:03:06.100Z,1012.81
2018-11-22T00:04:59.916Z,1012.77
2018-11-22T00:05:59.847Z,1012.74
2018-11-22T00:06:59.823Z,1012.82
2018-11-22T00:07:59.798Z,1012.79
2018-11-22T00:08:59.942Z,1012.77
2018-11-22T00:09:59.850Z,1012.80
2018-11-22T00:10:59.688Z,1012.79
2018-11-22T00:11:59.657Z,1012.82
2018-11-22T00:12:59.615Z,1012.85
2018-11-22T00:13:59.586Z,1012.82
2018-11-22T00:14:59.550Z,1012.84
2018-11-22T00:15:59.520Z,1012.82
2018-11-22T00:16:59.486Z,1012.81
2018-11-22T00:17:59.447Z,1012.79
2018-11-22T00:18:59.512Z,1012.80
2018-11-22T00:19:59.458Z,1012.86
2018-11-22T00:20:59.533Z,1012.82
2018-11-22T00:21:59.406Z,1012.80
2018-11-22T00:22:59.452Z,1012.79
2018-11-22T00:23:59.262Z,1012.79
2018-11-22T00:24:59.461Z,1012.79
2018-11-22T00:25:59.223Z,1012.81
2018-11-22T00:26:59.436Z,1012.80
2018-11-22T00:27:59.181Z,1012.79
2018-11-22T00:29:01.228Z,1012.80
2018-11-22T00:29:59.072Z,1012.82
2018-11-22T00:30:59.113Z,1012.75
2018-11-22T00:31:59.009Z,1012.82
2018-11-22T00:32:59.108Z,1012.76
2018-11-22T00:33:58.939Z,1012.82
2018-11-22T00:34:59.015Z,1012.81
2018-11-22T00:35:58.881Z,1012.83
2018-11-22T00:36:58.921Z,1012.84
2018-11-22T00:37:58.861Z,1012.82
2018-11-22T00:38:58.870Z,1012.84
2018-11-22T00:39:58.752Z,1012.91
2018-11-22T00:40:58.848Z,1012.89
2018-11-22T00:41:58.683Z,1012.90
2018-11-22T00:42:58.768Z,1012.88
2018-11-22T00:43:58.621Z,1012.83
2018-11-22T00:44:59.912Z,1012.84
2018-11-22T00:45:58.555Z,1012.87
2018-11-22T00:46:58.596Z,1012.88
2018-11-22T00:47:58.485Z,1012.85
2018-11-22T00:48:58.604Z,1012.85
2018-11-22T00:49:58.429Z,1012.86
2018-11-22T00:50:58.504Z,1012.82
2018-11-22T00:51:58.369Z,1012.81
2018-11-22T00:52:58.429Z,1012.84
2018-11-22T00:53:58.300Z,1012.85
2018-11-22T00:54:58.326Z,1012.83
2018-11-22T00:55:58.233Z,1012.82
2018-11-22T00:56:58.333Z,1012.81
2018-11-22T00:57:58.185Z,1012.83
2018-11-22T00:58:58.252Z,1012.84
2018-11-22T00:59:58.129Z,1012.81
2018-11-22T01:00:58.161Z,1012.84
2018-11-22T01:01:58.043Z,1012.82
2018-11-22T01:02:58.095Z,1012.85
2018-11-22T01:03:58.007Z,1012.84
2018-11-22T01:04:59.009Z,1012.86
2018-11-22T01:05:57.917Z,1012.87
2018-11-22T01:06:59.016Z,1012.80
2018-11-22T01:07:57.847Z,1012.85
2018-11-22T01:08:57.906Z,1012.84
2018-11-22T01:09:57.788Z,1012.89
2018-11-22T01:10:57.813Z,1012.84
2018-11-22T01:11:57.720Z,1012.87
2018-11-22T01:12:57.826Z,1012.87
2018-11-22T01:13:57.647Z,1012.82
2018-11-22T01:14:57.745Z,1012.89
2018-11-22T01:15:57.583Z,1012.82
2018-11-22T01:16:57.676Z,1012.83
2018-11-22T01:17:57.517Z,1012.83
2018-11-22T01:18:57.562Z,1012.85
2018-11-22T01:19:57.468Z,1012.81
2018-11-22T01:20:57.471Z,1012.84
2018-11-22T01:21:57.405Z,1012.82
2018-11-22T01:22:58.521Z,1012.78
2018-11-22T01:23:57.327Z,1012.82
2018-11-22T01:24:57.406Z,1012.83
2018-11-22T01:25:57.254Z,1012.87
2018-11-22T01:26:57.330Z,1012.83
2018-11-22T01:27:57.190Z,1012.80
2018-11-22T01:28:57.229Z,1012.77
2018-11-22T01:29:57.127Z,1012.82
2018-11-22T01:30:57.232Z,1012.82
2018-11-22T01:31:57.076Z,1012.82
2018-11-22T01:32:57.164Z,1012.81
2018-11-22T01:33:56.992Z,1012.81
2018-11-22T01:34:56.971Z,1012.83
2018-11-22T01:36:48.132Z,1012.85
2018-11-22T01:37:48.073Z,1012.88
2018-11-22T01:38:48.182Z,1012.86
2018-11-22T01:39:48.027Z,1012.89
2018-11-22T01:40:47.979Z,1012.84
2018-11-22T01:41:47.957Z,1012.90
2018-11-22T01:42:47.912Z,1012.89
2018-11-22T01:43:47.883Z,1012.89
2018-11-22T01:44:47.844Z,1012.88
2018-11-22T01:45:47.839Z,1012.84
2018-11-22T01:46:47.788Z,1012.85
2018-11-22T01:47:47.761Z,1012.82
2018-11-22T01:48:47.731Z,1012.86
2018-11-22T01:49:47.727Z,1012.86
2018-11-22T01:50:47.662Z,1012.86
2018-11-22T01:51:47.622Z,1012.86
2018-11-22T01:52:47.594Z,1012.85
2018-11-22T01:53:47.563Z,1012.84
2018-11-22T01:54:47.543Z,1012.82
2018-11-22T01:55:47.494Z,1012.84
2018-11-22T01:56:47.496Z,1012.83
2018-11-22T01:57:47.452Z,1012.82
2018-11-22T01:58:47.395Z,1012.84
2018-11-22T01:59:47.503Z,1012.80
2018-11-22T02:00:47.348Z,1012.81
2018-11-22T02:01:47.409Z,1012.78
2018-11-22T02:02:47.267Z,1012.72
2018-11-22T02:03:47.323Z,1012.76
2018-11-22T02:04:47.215Z,1012.71
2018-11-22T02:06:33.433Z,1012.75
2018-11-22T02:07:33.373Z,1012.72
2018-11-22T02:08:33.336Z,1012.73
2018-11-22T02:09:33.316Z,1012.73
2018-11-22T02:10:33.295Z,1012.73
2018-11-22T02:11:33.241Z,1012.78
2018-11-22T02:12:33.215Z,1012.74
2018-11-22T02:13:33.198Z,1012.73
2018-11-22T02:14:33.149Z,1012.76
2018-11-22T02:15:33.109Z,1012.71
2018-11-22T02:16:33.073Z,1012.73
2018-11-22T02:17:33.050Z,1012.74
2018-11-22T02:18:33.033Z,1012.76
2018-11-22T02:19:32.984Z,1012.72
2018-11-22T02:20:32.959Z,1012.78
2018-11-22T02:21:32.923Z,1012.76
2018-11-22T02:22:33.016Z,1012.71
2018-11-22T02:23:32.866Z,1012.72
2018-11-22T02:24:32.924Z,1012.75
2018-11-22T02:25:32.801Z,1012.75
2018-11-22T02:26:32.935Z,1012.75
2018-11-22T02:27:32.739Z,1012.73
2018-11-22T02:28:32.857Z,1012.69
2018-11-22T02:29:32.652Z,1012.73
2018-11-22T02:30:32.759Z,1012.72
2018-11-22T02:31:32.602Z,1012.71
2018-11-22T02:32:32.675Z,1012.73
2018-11-22T02:33:32.529Z,1012.73
2018-11-22T02:34:32.585Z,1012.71
2018-11-22T02:35:32.475Z,1012.71
2018-11-22T02:36:32.608Z,1012.74
2018-11-22T02:37:18.604Z,1012.73
2018-11-22T02:38:18.653Z,1012.75
2018-11-22T02:39:18.517Z,1012.70
2018-11-22T02:40:18.565Z,1012.69
2018-11-22T02:41:18.452Z,1012.70
2018-11-22T02:42:18.481Z,1012.71
2018-11-22T02:43:18.396Z,1012.72
2018-11-22T02:44:18.492Z,1012.76
2018-11-22T02:45:18.331Z,1012.77
2018-11-22T02:46:18.398Z,1012.72
2018-11-22T02:47:18.263Z,1012.72
2018-11-22T02:48:18.330Z,1012.69
2018-11-22T02:49:18.201Z,1012.73
2018-11-22T02:50:18.256Z,1012.73
2018-11-22T02:51:18.142Z,1012.72
2018-11-22T02:52:18.214Z,1012.74
2018-11-22T02:53:18.064Z,1012.70
2018-11-22T02:54:18.116Z,1012.73
2018-11-22T02:55:18.016Z,1012.75
2018-11-22T02:56:18.093Z,1012.75
2018-11-22T02:57:17.942Z,1012.72
2018-11-22T02:59:11.737Z,1012.76
2018-11-22T03:00:11.685Z,1012.75
2018-11-22T03:01:11.672Z,1012.68
2018-11-22T03:02:11.791Z,1012.72
2018-11-22T03:03:11.580Z,1012.71
2018-11-22T03:04:11.714Z,1012.68
2018-11-22T03:05:11.514Z,1012.66
2018-11-22T03:06:11.619Z,1012.65
2018-11-22T03:07:11.475Z,1012.68
2018-11-22T03:08:11.591Z,1012.68
2018-11-22T03:09:11.409Z,1012.69
2018-11-22T03:10:11.499Z,1012.64
2018-11-22T03:11:11.326Z,1012.70
2018-11-22T03:12:11.408Z,1012.66
2018-11-22T03:13:11.255Z,1012.65
2018-11-22T03:14:11.322Z,1012.65
2018-11-22T03:15:11.200Z,1012.71
2018-11-22T03:16:11.234Z,1012.71
2018-11-22T03:17:11.133Z,1012.73
2018-11-22T03:18:11.243Z,1012.73
2018-11-22T03:19:11.063Z,1012.73
2018-11-22T03:20:11.151Z,1012.74
2018-11-22T03:21:11.002Z,1012.71
2018-11-22T03:22:11.063Z,1012.68
2018-11-22T03:23:10.933Z,1012.69
2018-11-22T03:24:10.974Z,1012.68
2018-11-22T03:25:10.882Z,1012.68
2018-11-22T03:26:11.002Z,1012.66
2018-11-22T03:27:10.811Z,1012.65
2018-11-22T03:28:10.896Z,1012.68
2018-11-22T03:29:10.743Z,1012.67
2018-11-22T03:30:10.809Z,1012.71
2018-11-22T03:31:10.678Z,1012.69
2018-11-22T03:32:10.719Z,1012.73
2018-11-22T03:33:10.612Z,1012.73
2018-11-22T03:34:10.728Z,1012.69
2018-11-22T03:35:10.549Z,1012.68
2018-11-22T03:36:10.649Z,1012.71
2018-11-22T03:37:10.501Z,1012.71
2018-11-22T03:38:10.554Z,1012.71
2018-11-22T03:39:10.420Z,1012.68
2018-11-22T03:40:10.464Z,1012.71
2018-11-22T03:41:10.352Z,1012.72
2018-11-22T03:42:10.483Z,1012.70
2018-11-22T03:43:10.292Z,1012.73
2018-11-22T03:44:10.419Z,1012.77
2018-11-22T03:45:10.221Z,1012.73
2018-11-22T03:46:10.305Z,1012.70
2018-11-22T03:47:10.153Z,1012.71
2018-11-22T03:48:10.214Z,1012.74
2018-11-22T03:49:10.090Z,1012.71
2018-11-22T03:50:10.233Z,1012.69
2018-11-22T03:51:10.043Z,1012.70
2018-11-22T03:52:10.047Z,1012.69
2018-11-22T03:53:09.966Z,1012.71
2018-11-22T03:54:10.045Z,1012.72
2018-11-22T03:55:09.893Z,1012.70
2018-11-22T03:56:09.940Z,1012.71
2018-11-22T03:57:09.850Z,1012.71
2018-11-22T03:58:09.955Z,1012.74
2018-11-22T03:59:09.772Z,1012.76
2018-11-22T04:00:09.866Z,1012.77
2018-11-22T04:01:09.698Z,1012.75
2018-11-22T04:02:09.794Z,1012.74
2018-11-22T04:03:09.640Z,1012.76
2018-11-22T04:04:09.690Z,1012.80
2018-11-22T04:05:09.601Z,1012.76
2018-11-22T04:06:09.597Z,1012.78
2018-11-22T04:07:09.519Z,1012.80
2018-11-22T04:08:09.616Z,1012.74
2018-11-22T04:09:09.447Z,1012.72
2018-11-22T04:10:09.514Z,1012.71
2018-11-22T04:11:09.389Z,1012.74
2018-11-22T04:12:09.443Z,1012.69
2018-11-22T04:13:09.307Z,1012.74
2018-11-22T04:14:55.391Z,1012.74
2018-11-22T04:15:55.331Z,1012.72
2018-11-22T04:16:55.306Z,1012.72
2018-11-22T04:17:55.269Z,1012.71
2018-11-22T04:18:55.246Z,1012.72
2018-11-22T04:19:55.512Z,1012.70
2018-11-22T04:20:55.308Z,1012.73
2018-11-22T04:21:55.161Z,1012.74
2018-11-22T04:22:55.126Z,1012.71
2018-11-22T04:23:55.080Z,1012.72
2018-11-22T04:24:55.040Z,1012.69
2018-11-22T04:25:55.017Z,1012.69
2018-11-22T04:26:54.987Z,1012.69
2018-11-22T04:28:41.023Z,1012.69
2018-11-22T04:29:40.940Z,1012.66
2018-11-22T04:30:40.899Z,1012.67
2018-11-22T04:31:41.041Z,1012.65
2018-11-22T04:32:40.834Z,1012.69
2018-11-22T04:33:40.810Z,1012.62
2018-11-22T04:34:40.768Z,1012.61
2018-11-22T04:35:40.887Z,1012.61
2018-11-22T04:36:40.705Z,1012.59
2018-11-22T04:37:40.884Z,1012.58
2018-11-22T04:38:40.657Z,1012.64
2018-11-22T04:39:40.890Z,1012.59
2018-11-22T04:40:40.586Z,1012.62
2018-11-22T04:41:40.700Z,1012.61
2018-11-22T04:42:40.522Z,1012.60
2018-11-22T04:43:40.614Z,1012.58
2018-11-22T04:44:40.471Z,1012.60
2018-11-22T04:45:40.628Z,1012.61
2018-11-22T04:46:40.411Z,1012.60
2018-11-22T04:47:40.545Z,1012.65
2018-11-22T04:48:40.339Z,1012.61
2018-11-22T04:49:40.456Z,1012.64
2018-11-22T04:50:40.266Z,1012.64
2018-11-22T04:51:40.383Z,1012.64
2018-11-22T04:53:26.414Z,1012.64
2018-11-22T04:54:26.553Z,1012.65
2018-11-22T04:55:26.328Z,1012.67
2018-11-22T04:56:26.302Z,1012.66
2018-11-22T04:57:26.278Z,1012.62
2018-11-22T04:58:26.243Z,1012.67
2018-11-22T04:59:26.208Z,1012.64
2018-11-22T05:00:26.177Z,1012.70
2018-11-22T05:01:26.142Z,1012.66
2018-11-22T05:02:26.112Z,1012.65
2018-11-22T05:03:26.081Z,1012.66
2018-11-22T05:04:30.606Z,1012.68
2018-11-22T05:05:26.016Z,1012.65
2018-11-22T05:06:25.986Z,1012.63
2018-11-22T05:07:25.972Z,1012.64
2018-11-22T05:08:25.918Z,1012.61
2018-11-22T05:09:25.904Z,1012.66
2018-11-22T05:10:25.859Z,1012.62
2018-11-22T05:11:25.828Z,1012.62
2018-11-22T05:12:25.791Z,1012.63
2018-11-22T05:13:25.767Z,1012.64
2018-11-22T05:14:25.731Z,1012.62
2018-11-22T05:15:25.710Z,1012.63
2018-11-22T05:16:25.659Z,1012.65
2018-11-22T05:17:25.639Z,1012.63
2018-11-22T05:18:25.607Z,1012.63
2018-11-22T05:19:25.579Z,1012.59
2018-11-22T05:20:25.547Z,1012.63
2018-11-22T05:21:25.516Z,1012.65
2018-11-22T05:22:25.484Z,1012.61
2018-11-22T05:23:25.457Z,1012.59
2018-11-22T05:24:25.416Z,1012.58
2018-11-22T05:25:25.383Z,1012.60
2018-11-22T05:26:25.365Z,1012.64
2018-11-22T05:28:11.414Z,1012.61
2018-11-22T05:29:12.522Z,1012.59
2018-11-22T05:30:11.356Z,1012.58
2018-11-22T05:31:11.289Z,1012.55
2018-11-22T05:32:11.259Z,1012.55
2018-11-22T05:33:11.335Z,1012.55
2018-11-22T05:34:11.285Z,1012.52
2018-11-22T05:35:11.166Z,1012.56
2018-11-22T05:36:11.180Z,1012.55
2018-11-22T05:37:11.088Z,1012.56
2018-11-22T05:38:11.079Z,1012.54
2018-11-22T05:39:11.106Z,1012.52
2018-11-22T05:40:11.007Z,1012.53
2018-11-22T05:41:10.970Z,1012.50
2018-11-22T05:42:10.950Z,1012.57
2018-11-22T05:43:10.975Z,1012.59
2018-11-22T05:44:10.868Z,1012.59
2018-11-22T05:45:10.935Z,1012.59
2018-11-22T05:46:10.819Z,1012.57
2018-11-22T05:47:10.841Z,1012.58
2018-11-22T05:48:10.878Z,1012.57
2018-11-22T05:49:56.902Z,1012.55
2018-11-22T05:50:56.861Z,1012.59
2018-11-22T05:51:56.886Z,1012.55
2018-11-22T05:52:56.811Z,1012.56
2018-11-22T05:53:56.763Z,1012.62
2018-11-22T05:54:56.727Z,1012.54
2018-11-22T05:55:56.697Z,1012.58
2018-11-22T05:56:56.678Z,1012.58
2018-11-22T05:57:56.630Z,1012.57
2018-11-22T05:58:56.605Z,1012.55
2018-11-22T05:59:56.563Z,1012.53
2018-11-22T06:00:56.544Z,1012.55
2018-11-22T06:01:56.513Z,1012.54
2018-11-22T06:02:56.491Z,1012.55
2018-11-22T06:03:56.444Z,1012.54
2018-11-22T06:04:56.432Z,1012.57
2018-11-22T06:05:56.380Z,1012.54
2018-11-22T06:06:56.346Z,1012.56
2018-11-22T06:07:56.329Z,1012.56
2018-11-22T06:08:56.299Z,1012.54
2018-11-22T06:09:56.246Z,1012.55
2018-11-22T06:10:56.239Z,1012.55
2018-11-22T06:11:56.190Z,1012.54
2018-11-22T06:12:56.172Z,1012.53
2018-11-22T06:13:56.125Z,1012.53
2018-11-22T06:14:56.092Z,1012.54
2018-11-22T06:15:56.055Z,1012.51
2018-11-22T06:16:56.022Z,1012.47
2018-11-22T06:17:55.987Z,1012.51
2018-11-22T06:18:56.122Z,1012.53
2018-11-22T06:19:55.923Z,1012.52
2018-11-22T06:20:56.031Z,1012.50
2018-11-22T06:21:55.854Z,1012.49
2018-11-22T06:22:55.935Z,1012.52
2018-11-22T06:23:55.799Z,1012.56
2018-11-22T06:24:55.910Z,1012.51
2018-11-22T06:25:55.752Z,1012.59
2018-11-22T06:26:55.763Z,1012.64
2018-11-22T06:27:55.666Z,1012.60
2018-11-22T06:28:55.777Z,1012.59
2018-11-22T06:29:55.619Z,1012.61
2018-11-22T06:30:55.685Z,1012.61
2018-11-22T06:31:55.550Z,1012.54
2018-11-22T06:32:55.604Z,1012.61
2018-11-22T06:33:55.487Z,1012.55
2018-11-22T06:34:55.523Z,1012.60
2018-11-22T06:35:55.409Z,1012.61
2018-11-22T06:36:55.534Z,1012.59
2018-11-22T06:37:55.365Z,1012.64
2018-11-22T06:38:55.458Z,1012.63
2018-11-22T06:39:55.287Z,1012.68
2018-11-22T06:40:55.349Z,1012.57
2018-11-22T06:41:55.230Z,1012.60
2018-11-22T06:42:57.305Z,1012.62
2018-11-22T06:43:55.166Z,1012.62
2018-11-22T06:44:55.278Z,1012.61
2018-11-22T06:45:55.093Z,1012.59
2018-11-22T06:46:55.187Z,1012.59
2018-11-22T06:47:55.032Z,1012.57
2018-11-22T06:48:55.101Z,1012.59
2018-11-22T06:49:54.957Z,1012.62
2018-11-22T06:50:58.217Z,1012.61
2018-11-22T06:51:54.937Z,1012.55
2018-11-22T06:52:55.021Z,1012.59
2018-11-22T06:53:54.842Z,1012.57
2018-11-22T06:54:54.934Z,1012.57
2018-11-22T06:55:54.774Z,1012.59
2018-11-22T06:56:54.842Z,1012.57
2018-11-22T06:57:54.708Z,1012.59
2018-11-22T06:59:40.912Z,1012.63
2018-11-22T07:00:40.905Z,1012.60
2018-11-22T07:01:40.949Z,1012.61
2018-11-22T07:02:40.795Z,1012.58
2018-11-22T07:03:40.751Z,1012.62
2018-11-22T07:04:40.765Z,1012.62
2018-11-22T07:05:40.690Z,1012.63
2018-11-22T07:06:40.676Z,1012.64
2018-11-22T07:07:40.662Z,1012.68
2018-11-22T07:08:40.579Z,1012.62
2018-11-22T07:09:40.601Z,1012.61
2018-11-22T07:10:40.534Z,1012.67
2018-11-22T07:11:40.507Z,1012.65
2018-11-22T07:12:42.575Z,1012.64
2018-11-22T07:13:40.435Z,1012.68
2018-11-22T07:14:40.409Z,1012.68
2018-11-22T07:18:34.145Z,1012.72
2018-11-22T07:19:34.189Z,1012.73
2018-11-22T07:20:34.052Z,1012.72
2018-11-22T07:21:35.112Z,1012.70
2018-11-22T07:22:33.996Z,1012.71
2018-11-22T07:23:35.024Z,1012.76
2018-11-22T07:24:33.923Z,1012.71
2018-11-22T07:25:39.979Z,1012.70
2018-11-22T07:26:33.874Z,1012.67
2018-11-22T07:27:38.257Z,1012.73
2018-11-22T07:28:33.823Z,1012.75
2018-11-22T07:29:38.443Z,1012.74
2018-11-22T07:30:33.756Z,1012.73
2018-11-22T07:31:33.704Z,1012.73
2018-11-22T07:32:34.774Z,1012.72
2018-11-22T07:33:38.115Z,1012.76
2018-11-22T07:34:33.711Z,1012.75
2018-11-22T07:35:33.600Z,1012.77
2018-11-22T07:36:33.575Z,1012.75
2018-11-22T07:37:33.514Z,1012.75
2018-11-22T07:38:33.606Z,1012.73
2018-11-22T07:39:33.448Z,1012.68
2018-11-22T07:40:39.439Z,1012.73
2018-11-22T07:41:33.394Z,1012.70
2018-11-22T07:42:34.432Z,1012.76
2018-11-22T07:43:33.327Z,1012.71
2018-11-22T07:44:35.398Z,1012.70
2018-11-22T07:46:19.221Z,1012.67
2018-11-22T07:47:19.275Z,1012.70
2018-11-22T07:48:19.132Z,1012.68
2018-11-22T07:49:19.120Z,1012.72
2018-11-22T07:50:19.071Z,1012.70
2018-11-22T07:51:19.054Z,1012.70
2018-11-22T07:52:19.009Z,1012.68
2018-11-22T07:53:18.976Z,1012.68
2018-11-22T07:54:18.947Z,1012.71
2018-11-22T07:55:18.921Z,1012.70
2018-11-22T07:56:18.882Z,1012.71
2018-11-22T07:57:18.847Z,1012.70
2018-11-22T07:58:18.818Z,1012.71
2018-11-22T07:59:18.786Z,1012.73
2018-11-22T08:00:18.758Z,1012.69
2018-11-22T08:01:18.726Z,1012.70
2018-11-22T08:02:18.693Z,1012.65
2018-11-22T08:03:18.671Z,1012.69
2018-11-22T08:04:18.628Z,1012.65
2018-11-22T08:05:18.597Z,1012.63
2018-11-22T08:06:18.570Z,1012.61
2018-11-22T08:07:18.539Z,1012.64
2018-11-22T08:08:18.497Z,1012.66
2018-11-22T08:09:18.493Z,1012.68
2018-11-22T08:10:18.465Z,1012.66
2018-11-22T08:11:18.407Z,1012.67
2018-11-22T08:13:04.386Z,1012.69
2018-11-22T08:14:04.397Z,1012.71
2018-11-22T08:15:04.262Z,1012.70
2018-11-22T08:16:04.300Z,1012.72
2018-11-22T08:17:04.248Z,1012.77
2018-11-22T08:18:04.171Z,1012.72
2018-11-22T08:19:04.139Z,1012.70
2018-11-22T08:20:04.217Z,1012.78
2018-11-22T08:21:04.891Z,1012.77
2018-11-22T08:22:04.101Z,1012.78
2018-11-22T08:23:04.012Z,1012.75
2018-11-22T08:24:05.043Z,1012.72
2018-11-22T08:25:03.952Z,1012.72
2018-11-22T08:26:04.950Z,1012.77
2018-11-22T08:27:03.884Z,1012.73
2018-11-22T08:28:03.864Z,1012.75
2018-11-22T08:29:03.817Z,1012.68
2018-11-22T08:30:03.800Z,1012.73
2018-11-22T08:31:03.856Z,1012.74
2018-11-22T08:32:03.756Z,1012.75
2018-11-22T08:33:03.689Z,1012.75
2018-11-22T08:34:03.654Z,1012.79
2018-11-22T08:35:03.637Z,1012.78
2018-11-22T08:36:03.603Z,1012.75
2018-11-22T08:37:49.476Z,1012.79
2018-11-22T08:38:49.385Z,1012.81
2018-11-22T08:39:49.344Z,1012.78
2018-11-22T08:40:49.317Z,1012.79
2018-11-22T08:41:49.298Z,1012.79
2018-11-22T08:42:55.081Z,1012.80
2018-11-22T08:43:49.326Z,1012.81
2018-11-22T08:44:49.199Z,1012.82
2018-11-22T08:45:49.169Z,1012.81
2018-11-22T08:46:49.152Z,1012.81
2018-11-22T08:47:49.103Z,1012.81
2018-11-22T08:48:49.089Z,1012.84
2018-11-22T08:49:49.032Z,1012.84
2018-11-22T08:50:49.060Z,1012.83
2018-11-22T08:52:35.526Z,1012.89
2018-11-22T08:53:37.207Z,1012.86
2018-11-22T08:55:34.197Z,1012.87
2018-11-22T08:56:34.239Z,1012.89
2018-11-22T08:57:34.115Z,1012.87
2018-11-22T08:58:34.212Z,1012.88
2018-11-22T08:59:34.054Z,1012.93
2018-11-22T09:00:34.056Z,1012.90
2018-11-22T09:01:34.075Z,1012.85
2018-11-22T09:03:20.348Z,1012.87
2018-11-22T09:04:20.281Z,1012.88
2018-11-22T09:05:20.244Z,1012.84
2018-11-22T09:06:20.221Z,1012.89
2018-11-22T09:07:20.183Z,1012.85
2018-11-22T09:08:20.195Z,1012.83
2018-11-22T09:09:20.164Z,1012.85
2018-11-22T09:10:20.089Z,1012.87
2018-11-22T09:11:20.057Z,1012.85
2018-11-22T09:12:20.048Z,1012.84
2018-11-22T09:13:06.694Z,1012.87
2018-11-22T09:14:06.621Z,1012.88
2018-11-22T09:15:06.591Z,1012.91
2018-11-22T09:16:06.567Z,1012.88
2018-11-22T09:17:06.524Z,1012.87
2018-11-22T09:18:06.488Z,1012.93
2018-11-22T09:19:06.463Z,1012.92
2018-11-22T09:20:06.475Z,1012.94
2018-11-22T09:21:06.431Z,1012.90
2018-11-22T09:22:08.574Z,1012.92
2018-11-22T09:23:06.364Z,1012.90
2018-11-22T09:24:06.375Z,1012.91
2018-11-22T09:25:06.319Z,1012.88
2018-11-22T09:26:56.962Z,1012.90
2018-11-22T09:27:56.885Z,1012.94
2018-11-22T09:28:56.896Z,1012.93
2018-11-22T09:29:56.859Z,1012.93
2018-11-22T09:30:56.795Z,1012.92
2018-11-22T09:31:56.763Z,1012.90
2018-11-22T09:32:56.746Z,1012.91
2018-11-22T09:33:56.692Z,1012.89
2018-11-22T09:34:56.733Z,1012.91
2018-11-22T09:35:56.623Z,1012.87
2018-11-22T09:36:56.611Z,1012.88
2018-11-22T09:38:42.592Z,1012.81
2018-11-22T09:39:42.556Z,1012.86
2018-11-22T09:40:42.498Z,1012.88
2018-11-22T09:41:42.466Z,1012.85
2018-11-22T09:42:42.434Z,1012.83
2018-11-22T09:43:42.402Z,1012.85
2018-11-22T09:44:42.391Z,1012.85
2018-11-22T09:45:42.365Z,1012.88
2018-11-22T09:46:42.300Z,1012.88
2018-11-22T09:47:42.263Z,1012.89
2018-11-22T09:48:42.260Z,1012.95
2018-11-22T09:49:42.220Z,1012.93
2018-11-22T09:50:42.182Z,1012.93
2018-11-22T09:51:42.147Z,1012.92
2018-11-22T09:52:42.196Z,1012.93
2018-11-22T09:53:42.086Z,1012.92
2018-11-22T09:54:42.053Z,1012.93
2018-11-22T09:55:42.014Z,1012.87
2018-11-22T09:56:41.979Z,1012.94
2018-11-22T09:57:41.947Z,1012.94
2018-11-22T09:58:41.937Z,1012.95
2018-11-22T09:59:41.882Z,1012.93
2018-11-22T10:00:41.848Z,1012.95
2018-11-22T10:01:41.816Z,1012.97
2018-11-22T10:02:41.792Z,1012.94
2018-11-22T10:03:41.765Z,1012.95
2018-11-22T10:04:41.828Z,1012.94
2018-11-22T10:05:41.682Z,1012.90
2018-11-22T10:06:41.647Z,1012.88
2018-11-22T10:07:41.710Z,1012.91
2018-11-22T10:08:41.641Z,1012.92
2018-11-22T10:09:41.597Z,1012.93
2018-11-22T10:10:41.524Z,1012.91
2018-11-22T10:12:28.534Z,1012.87
2018-11-22T10:13:28.519Z,1012.90
2018-11-22T10:14:28.394Z,1012.87
2018-11-22T10:15:28.425Z,1012.84
2018-11-22T10:16:28.333Z,1012.83
2018-11-22T10:17:28.343Z,1012.84
2018-11-22T10:18:28.279Z,1012.86
2018-11-22T10:19:28.228Z,1012.81
2018-11-22T10:20:28.193Z,1012.80
2018-11-22T10:21:28.259Z,1012.78
2018-11-22T10:22:28.152Z,1012.78
2018-11-22T10:23:28.269Z,1012.77
2018-11-22T10:24:28.159Z,1012.79
2018-11-22T10:25:28.032Z,1012.78
2018-11-22T10:26:28.014Z,1012.80
2018-11-22T10:27:27.973Z,1012.80
2018-11-22T10:28:27.939Z,1012.83
2018-11-22T10:29:28.017Z,1012.85
2018-11-22T10:30:27.996Z,1012.88
2018-11-22T10:31:27.890Z,1012.82
2018-11-22T10:32:27.809Z,1012.88
2018-11-22T10:33:27.771Z,1012.86
2018-11-22T10:34:27.743Z,1012.83
2018-11-22T10:35:27.754Z,1012.82
2018-11-22T10:36:27.749Z,1012.83
2018-11-22T10:37:27.651Z,1012.81
2018-11-22T10:38:27.690Z,1012.81
2018-11-22T10:39:28.698Z,1012.83
2018-11-22T10:40:27.545Z,1012.81
2018-11-22T10:41:27.531Z,1012.81
2018-11-22T10:43:14.112Z,1012.83
2018-11-22T10:44:14.026Z,1012.86
2018-11-22T10:45:14.086Z,1012.91
2018-11-22T10:46:13.965Z,1012.84
2018-11-22T10:47:14.001Z,1012.86
2018-11-22T10:48:13.901Z,1012.91
2018-11-22T10:49:13.919Z,1012.89
2018-11-22T10:50:13.835Z,1012.90
2018-11-22T10:51:13.795Z,1012.92
2018-11-22T10:52:13.769Z,1012.89
2018-11-22T10:53:13.842Z,1012.91
2018-11-22T10:54:13.716Z,1012.83
2018-11-22T10:55:13.749Z,1012.86
2018-11-22T10:56:13.640Z,1012.87
2018-11-22T10:57:13.664Z,1012.92
2018-11-22T10:58:13.577Z,1012.86
2018-11-22T10:59:13.596Z,1012.92
2018-11-22T11:00:13.520Z,1012.90
2018-11-22T11:01:13.599Z,1012.87
2018-11-22T11:02:13.466Z,1012.91
2018-11-22T11:03:13.539Z,1012.92
2018-11-22T11:04:13.386Z,1012.91
2018-11-22T11:05:13.354Z,1012.91
2018-11-22T11:06:13.314Z,1012.89
2018-11-22T11:07:13.434Z,1012.89
2018-11-22T11:08:13.251Z,1012.85
2018-11-22T11:10:05.322Z,1012.90
2018-11-22T11:11:05.295Z,1012.86
2018-11-22T11:12:06.289Z,1012.82
2018-11-22T11:13:05.203Z,1012.88
2018-11-22T11:14:05.168Z,1012.87
2018-11-22T11:15:05.149Z,1012.84
2018-11-22T11:16:05.097Z,1012.84
2018-11-22T11:17:05.069Z,1012.81
2018-11-22T11:18:05.059Z,1012.84
2018-11-22T11:19:05.019Z,1012.82
2018-11-22T11:20:05.150Z,1012.85
2018-11-22T11:21:04.963Z,1012.82
2018-11-22T11:22:04.923Z,1012.84
2018-11-22T11:23:04.882Z,1012.85
2018-11-22T11:24:04.901Z,1012.79
2018-11-22T11:25:04.860Z,1012.82
2018-11-22T11:26:04.817Z,1012.83
2018-11-22T11:27:04.784Z,1012.80
2018-11-22T11:28:04.723Z,1012.80
2018-11-22T11:29:04.711Z,1012.80
2018-11-22T11:30:04.678Z,1012.77
2018-11-22T11:30:50.682Z,1012.75
2018-11-22T11:31:50.630Z,1012.78
2018-11-22T11:32:50.589Z,1012.73
2018-11-22T11:33:50.666Z,1012.76
2018-11-22T11:34:50.522Z,1012.76
2018-11-22T11:35:50.513Z,1012.77
2018-11-22T11:36:50.453Z,1012.76
2018-11-22T11:37:50.437Z,1012.73
2018-11-22T11:38:50.400Z,1012.71
2018-11-22T11:39:50.360Z,1012.75
2018-11-22T11:40:50.421Z,1012.72
2018-11-22T11:41:50.308Z,1012.76
2018-11-22T11:42:50.273Z,1012.73
2018-11-22T11:43:50.237Z,1012.72
2018-11-22T11:44:50.227Z,1012.71
2018-11-22T11:45:50.164Z,1012.69
2018-11-22T11:47:36.084Z,1012.73
2018-11-22T11:48:36.042Z,1012.72
2018-11-22T11:49:36.143Z,1012.71
2018-11-22T11:50:35.958Z,1012.71
2018-11-22T11:51:36.055Z,1012.72
2018-11-22T11:52:35.898Z,1012.73
2018-11-22T11:53:41.517Z,1012.73
2018-11-22T11:54:35.835Z,1012.70
2018-11-22T11:55:35.865Z,1012.71
2018-11-22T11:56:35.783Z,1012.68
2018-11-22T11:57:35.776Z,1012.72
2018-11-22T11:58:35.713Z,1012.70
2018-11-22T11:59:35.788Z,1012.66
2018-11-22T12:00:35.645Z,1012.66
2018-11-22T12:01:35.602Z,1012.67
2018-11-22T12:02:35.601Z,1012.65
2018-11-22T12:03:35.563Z,1012.64
2018-11-22T12:04:35.619Z,1012.60
2018-11-22T12:05:35.522Z,1012.59
2018-11-22T12:06:35.447Z,1012.61
2018-11-22T12:07:35.532Z,1012.58
2018-11-22T12:08:35.757Z,1012.58
2018-11-22T12:09:35.868Z,1012.56
2018-11-22T12:10:35.615Z,1012.60
2018-11-22T12:11:35.444Z,1012.51
2018-11-22T12:12:36.179Z,1012.53
2018-11-22T12:13:35.221Z,1012.49
2018-11-22T12:14:35.287Z,1012.51
2018-11-22T12:15:35.163Z,1012.48
2018-11-22T12:16:35.140Z,1012.50
2018-11-22T12:17:35.097Z,1012.47
2018-11-22T12:18:37.029Z,1012.47
2018-11-22T12:19:35.038Z,1012.48
2018-11-22T12:20:35.113Z,1012.49
2018-11-22T12:21:34.979Z,1012.43
2018-11-22T12:22:34.935Z,1012.43
2018-11-22T12:24:21.392Z,1012.44
2018-11-22T12:25:21.335Z,1012.44